createdAt,value
2023-04-08T00:02:09.860Z,15
2023-04-08T00:04:40.580Z,16
2023-04-08T00:07:11.235Z,19
2023-04-08T00:09:41.783Z,14
2023-04-08T00:12:12.184Z,18
2023-04-08T00:14:43.140Z,16
2023-04-08T00:17:13.925Z,14
2023-04-08T00:19:44.756Z,14
2023-04-08T00:22:15.403Z,15
2023-04-08T00:24:46.146Z,15
2023-04-08T00:27:17.116Z,13
2023-04-08T00:29:47.681Z,13
2023-04-08T00:32:18.466Z,13
2023-04-08T00:34:49.212Z,14
2023-04-08T00:37:19.978Z,13
2023-04-08T00:39:50.730Z,14
2023-04-08T00:42:21.498Z,12
2023-04-08T00:44:52.232Z,15
2023-04-08T00:47:22.769Z,14
2023-04-08T00:49:52.839Z,17
2023-04-08T00:52:23.622Z,14
2023-04-08T00:54:54.379Z,17
2023-04-08T00:57:25.230Z,13
2023-04-08T00:59:55.894Z,12
2023-04-08T01:02:26.765Z,14
2023-04-08T01:04:57.083Z,15
2023-04-08T01:07:27.849Z,12
2023-04-08T01:09:58.073Z,12
2023-04-08T01:12:28.828Z,12
2023-04-08T01:14:59.575Z,16
2023-04-08T01:17:30.396Z,14
2023-04-08T01:20:01.129Z,16
2023-04-08T01:22:31.289Z,13
2023-04-08T01:25:02.118Z,15
2023-04-08T01:27:32.240Z,16
2023-04-08T01:30:02.970Z,14
2023-04-08T01:32:33.952Z,16
2023-04-08T01:35:04.588Z,12
2023-04-08T01:37:34.754Z,14
2023-04-08T01:40:05.181Z,14
2023-04-08T01:42:35.965Z,17
2023-04-08T01:45:06.753Z,13
2023-04-08T01:47:37.606Z,16
2023-04-08T01:50:08.027Z,16
2023-04-08T01:52:38.568Z,19
2023-04-08T01:55:09.342Z,14
2023-04-08T01:57:39.790Z,14
2023-04-08T02:00:10.590Z,15
2023-04-08T02:02:41.611Z,17
2023-04-08T02:05:11.879Z,17
2023-04-08T02:07:42.754Z,19
2023-04-08T02:10:13.410Z,18
2023-04-08T02:12:43.998Z,18
2023-04-08T02:15:14.712Z,17
2023-04-08T02:17:45.292Z,18
2023-04-08T02:20:16.003Z,17
2023-04-08T02:22:46.502Z,16
2023-04-08T02:25:16.987Z,18
2023-04-08T02:27:47.078Z,22
2023-04-08T02:30:17.269Z,23
2023-04-08T02:32:47.524Z,15
2023-04-08T02:35:17.967Z,18
2023-04-08T02:37:48.753Z,20
2023-04-08T02:40:19.595Z,18
2023-04-08T02:42:50.343Z,19
2023-04-08T02:45:20.961Z,17
2023-04-08T02:47:50.929Z,24
2023-04-08T02:50:21.453Z,18
2023-04-08T02:52:51.674Z,21
2023-04-08T02:55:22.239Z,24
2023-04-08T02:57:52.590Z,20
2023-04-08T03:00:22.498Z,23
2023-04-08T03:02:52.957Z,23
2023-04-08T03:05:22.944Z,20
2023-04-08T03:07:53.476Z,24
2023-04-08T03:10:23.757Z,24
2023-04-08T03:12:54.061Z,24
2023-04-08T03:15:24.904Z,23
2023-04-08T03:17:55.212Z,21
2023-04-08T03:20:25.638Z,26
2023-04-08T03:22:55.655Z,22
2023-04-08T03:25:26.155Z,22
2023-04-08T03:27:56.699Z,22
2023-04-08T03:30:26.700Z,24
2023-04-08T03:32:57.250Z,26
2023-04-08T03:35:27.950Z,28
2023-04-08T03:37:57.977Z,24
2023-04-08T03:40:28.264Z,25
2023-04-08T03:42:59.111Z,25
2023-04-08T03:45:29.373Z,25
2023-04-08T03:47:59.938Z,27
2023-04-08T03:50:30.429Z,30
2023-04-08T03:53:00.941Z,30
2023-04-08T03:55:30.960Z,29
2023-04-08T03:58:01.164Z,27
2023-04-08T04:00:31.378Z,33
2023-04-08T04:03:01.640Z,30
2023-04-08T04:05:31.543Z,27
2023-04-08T04:08:01.794Z,32
2023-04-08T04:10:32.281Z,33
2023-04-08T04:13:02.854Z,30
2023-04-08T04:15:33.478Z,27
2023-04-08T04:18:03.998Z,28
2023-04-08T04:20:34.219Z,27
2023-04-08T04:23:04.749Z,25
2023-04-08T04:25:34.853Z,32
2023-04-08T04:28:05.069Z,32
2023-04-08T04:30:35.860Z,36
2023-04-08T04:33:06.515Z,32
2023-04-08T04:35:36.692Z,33
2023-04-08T04:38:07.235Z,32
2023-04-08T04:40:37.726Z,30
2023-04-08T04:43:08.291Z,35
2023-04-08T04:45:38.853Z,30
2023-04-08T04:48:09.368Z,38
2023-04-08T04:50:40.222Z,34
2023-04-08T04:53:10.605Z,38
2023-04-08T04:55:41.247Z,38
2023-04-08T04:58:11.625Z,35
2023-04-08T05:00:42.059Z,36
2023-04-08T05:03:13.028Z,37
2023-04-08T05:05:43.438Z,41
2023-04-08T05:08:13.919Z,34
2023-04-08T05:10:44.004Z,34
2023-04-08T05:13:14.836Z,34
2023-04-08T05:15:45.632Z,33
2023-04-08T05:18:16.368Z,33
2023-04-08T05:20:46.933Z,38
2023-04-08T05:23:17.727Z,34
2023-04-08T05:25:47.791Z,40
2023-04-08T05:28:17.998Z,33
2023-04-08T05:30:48.565Z,33
2023-04-08T05:33:18.814Z,35
2023-04-08T05:35:49.578Z,34
2023-04-08T05:38:19.907Z,36
2023-04-08T05:40:49.991Z,36
2023-04-08T05:43:20.475Z,42
2023-04-08T05:45:50.598Z,40
2023-04-08T05:48:20.829Z,44
2023-04-08T05:50:50.771Z,37
2023-04-08T05:53:20.799Z,40
2023-04-08T05:55:51.184Z,35
2023-04-08T05:58:21.950Z,40
2023-04-08T06:00:52.337Z,41
2023-04-08T06:03:23.123Z,38
2023-04-08T06:05:53.789Z,36
2023-04-08T06:08:24.474Z,40
2023-04-08T06:10:55.043Z,36
2023-04-08T06:13:25.606Z,39
2023-04-08T06:15:55.592Z,39
2023-04-08T06:18:25.995Z,42
2023-04-08T06:20:55.994Z,41
2023-04-08T06:23:26.220Z,41
2023-04-08T06:25:56.600Z,46
2023-04-08T06:28:27.040Z,48
2023-04-08T06:30:57.993Z,48
2023-04-08T06:33:28.091Z,46
2023-04-08T06:35:58.717Z,54
2023-04-08T06:38:29.317Z,56
2023-04-08T06:40:59.681Z,51
2023-04-08T06:43:30.439Z,49
2023-04-08T06:46:00.863Z,46
2023-04-08T06:48:31.110Z,52
2023-04-08T06:51:01.477Z,52
2023-04-08T06:53:31.977Z,52
2023-04-08T06:56:02.651Z,49
2023-04-08T06:58:33.031Z,51
2023-04-08T07:01:03.745Z,50
2023-04-08T07:03:34.224Z,54
2023-04-08T07:06:04.642Z,45
2023-04-08T07:08:34.978Z,50
2023-04-08T07:11:05.312Z,58
2023-04-08T07:13:36.053Z,79
2023-04-08T07:16:06.273Z,70
2023-04-08T07:18:36.597Z,76
2023-04-08T07:21:06.907Z,52
2023-04-08T07:23:37.446Z,46
2023-04-08T07:26:08.138Z,49
2023-04-08T07:28:38.794Z,56
2023-04-08T07:31:09.479Z,42
2023-04-08T07:33:39.623Z,41
2023-04-08T07:36:10.183Z,59
2023-04-08T07:38:40.477Z,52
2023-04-08T07:41:11.139Z,66
2023-04-08T07:43:41.185Z,51
2023-04-08T07:46:12.072Z,54
2023-04-08T07:48:42.179Z,102
2023-04-08T07:51:12.340Z,88
2023-04-08T07:53:42.769Z,83
2023-04-08T07:56:13.320Z,48
2023-04-08T07:58:43.925Z,49
2023-04-08T08:01:14.068Z,51
2023-04-08T08:03:44.655Z,38
2023-04-08T08:06:14.986Z,45
2023-04-08T08:08:45.669Z,51
2023-04-08T08:11:15.897Z,58
2023-04-08T08:13:46.282Z,46
2023-04-08T08:16:16.922Z,45
2023-04-08T08:18:47.109Z,52
2023-04-08T08:21:17.206Z,48
2023-04-08T08:23:47.963Z,60
2023-04-08T08:26:18.513Z,47
2023-04-08T08:28:48.537Z,64
2023-04-08T08:31:18.976Z,53
2023-04-08T08:33:49.989Z,54
2023-04-08T08:36:20.441Z,48
2023-04-08T08:38:51.290Z,53
2023-04-08T08:41:22.102Z,56
2023-04-08T08:43:52.380Z,43
2023-04-08T08:46:22.583Z,42
2023-04-08T08:48:53.469Z,49
2023-04-08T08:51:24.323Z,46
2023-04-08T08:53:55.185Z,49
2023-04-08T08:56:25.488Z,45
2023-04-08T08:58:55.874Z,45
2023-04-08T09:01:26.358Z,50
2023-04-08T09:03:56.475Z,38
2023-04-08T09:06:26.787Z,48
2023-04-08T09:08:57.501Z,47
2023-04-08T09:11:28.161Z,53
2023-04-08T09:13:58.846Z,44
2023-04-08T09:16:29.238Z,45
2023-04-08T09:19:00.071Z,44
2023-04-08T09:21:30.374Z,39
2023-04-08T09:24:00.877Z,42
2023-04-08T09:26:30.964Z,43
2023-04-08T09:29:06.111Z,40
2023-04-08T09:31:31.839Z,44
2023-04-08T09:34:02.092Z,42
2023-04-08T09:36:32.533Z,51
2023-04-08T09:39:02.809Z,45
2023-04-08T09:41:33.694Z,46
2023-04-08T09:44:03.956Z,42
2023-04-08T09:46:34.263Z,40
2023-04-08T09:49:04.375Z,41
2023-04-08T09:51:34.533Z,36
2023-04-08T09:54:04.697Z,40
2023-04-08T09:56:35.642Z,44
2023-04-08T09:59:06.912Z,63
2023-04-08T10:01:36.867Z,93
2023-04-08T10:04:06.777Z,41
2023-04-08T10:06:37.240Z,38
2023-04-08T10:09:08.007Z,34
2023-04-08T10:11:38.426Z,37
2023-04-08T10:14:08.634Z,50
2023-04-08T10:16:39.290Z,56
2023-04-08T10:19:09.704Z,41
2023-04-08T10:21:40.320Z,35
2023-04-08T10:24:11.245Z,39
2023-04-08T10:26:41.927Z,29
2023-04-08T10:29:12.520Z,31
2023-04-08T10:31:42.573Z,30
2023-04-08T10:34:13.099Z,32
2023-04-08T10:36:43.882Z,37
2023-04-08T10:39:14.592Z,36
2023-04-08T10:41:44.952Z,30
2023-04-08T10:44:15.158Z,32
2023-04-08T10:46:45.931Z,28
2023-04-08T10:49:16.743Z,32
2023-04-08T10:51:47.131Z,32
2023-04-08T10:54:17.236Z,28
2023-04-08T10:56:47.934Z,28
2023-04-08T10:59:18.460Z,32
2023-04-08T11:01:48.899Z,31
2023-04-08T11:04:19.732Z,31
2023-04-08T11:06:49.746Z,28
2023-04-08T11:09:20.048Z,29
2023-04-08T11:11:50.266Z,34
2023-04-08T11:14:20.589Z,37
2023-04-08T11:16:51.378Z,34
2023-04-08T11:19:21.877Z,38
2023-04-08T11:21:52.303Z,35
2023-04-08T11:24:22.846Z,34
2023-04-08T11:26:53.154Z,33
2023-04-08T11:29:23.439Z,32
2023-04-08T11:31:54.235Z,33
2023-04-08T11:34:24.168Z,34
2023-04-08T11:36:54.874Z,34
2023-04-08T11:39:25.207Z,38
2023-04-08T11:41:55.717Z,29
2023-04-08T11:44:25.727Z,36
2023-04-08T11:46:56.478Z,36
2023-04-08T11:49:26.363Z,35
2023-04-08T11:51:56.813Z,40
2023-04-08T11:54:27.248Z,42
2023-04-08T11:56:57.377Z,38
2023-04-08T11:59:29.358Z,46
2023-04-08T12:01:58.157Z,40
2023-04-08T12:04:28.354Z,74
2023-04-08T12:06:58.642Z,45
2023-04-08T12:09:29.434Z,35
2023-04-08T12:11:59.969Z,37
2023-04-08T12:14:30.014Z,34
2023-04-08T12:17:00.189Z,38
2023-04-08T12:19:31.747Z,33
2023-04-08T12:22:01.124Z,38
2023-04-08T12:24:31.682Z,37
2023-04-08T12:27:01.778Z,42
2023-04-08T12:29:32.281Z,36
2023-04-08T12:32:02.583Z,32
2023-04-08T12:34:32.578Z,36
2023-04-08T12:37:03.104Z,32
2023-04-08T12:39:33.909Z,39
2023-04-08T12:42:04.857Z,34
2023-04-08T12:44:35.175Z,35
2023-04-08T12:47:05.881Z,36
2023-04-08T12:50:05.485Z,17
2023-04-08T12:52:18.372Z,31
2023-04-08T12:54:49.047Z,40
2023-04-08T12:57:19.140Z,35
2023-04-08T12:59:49.159Z,30
2023-04-08T13:02:19.677Z,34
2023-04-08T13:04:49.554Z,35
2023-04-08T13:07:19.738Z,34
2023-04-08T13:09:49.900Z,30
2023-04-08T13:12:20.198Z,35
2023-04-08T13:14:50.289Z,41
2023-04-08T13:17:21.178Z,48
2023-04-08T13:19:51.852Z,37
2023-04-08T13:22:22.043Z,35
2023-04-08T13:24:52.336Z,30
2023-04-08T13:27:22.530Z,40
2023-04-08T13:29:52.908Z,36
2023-04-08T13:32:23.097Z,36
2023-04-08T13:34:53.471Z,37
2023-04-08T13:37:24.132Z,38
2023-04-08T13:39:54.607Z,41
2023-04-08T13:42:25.477Z,36
2023-04-08T13:44:55.462Z,35
2023-04-08T13:47:26.034Z,36
2023-04-08T13:49:56.225Z,39
2023-04-08T13:52:26.713Z,36
2023-04-08T13:54:56.756Z,39
2023-04-08T13:57:27.394Z,42
2023-04-08T13:59:57.428Z,39
2023-04-08T14:02:28.399Z,38
2023-04-08T14:04:59.098Z,47
2023-04-08T14:07:29.187Z,42
2023-04-08T14:09:59.606Z,44
2023-04-08T14:12:30.194Z,40
2023-04-08T14:15:00.730Z,49
2023-04-08T14:17:31.160Z,45
2023-04-08T14:20:01.166Z,49
2023-04-08T14:22:31.551Z,50
2023-04-08T14:25:02.309Z,46
2023-04-08T14:27:34.144Z,43
2023-04-08T14:30:03.507Z,49
2023-04-08T14:32:34.323Z,47
2023-04-08T14:35:06.227Z,49
2023-04-08T14:37:35.190Z,48
2023-04-08T14:40:05.480Z,39
2023-04-08T14:42:36.084Z,41
2023-04-08T14:45:06.731Z,40
2023-04-08T14:47:37.086Z,42
2023-04-08T14:50:07.292Z,45
2023-04-08T14:52:37.984Z,42
2023-04-08T14:55:08.184Z,45
2023-04-08T14:57:38.415Z,43
2023-04-08T15:00:09.048Z,41
2023-04-08T15:02:39.476Z,41
2023-04-08T15:05:09.623Z,48
2023-04-08T15:07:40.129Z,36
2023-04-08T15:10:10.445Z,45
2023-04-08T15:12:41.278Z,46
2023-04-08T15:15:12.066Z,46
2023-04-08T15:17:42.234Z,47
2023-04-08T15:20:12.488Z,46
2023-04-08T15:22:42.733Z,46
2023-04-08T15:25:13.602Z,42
2023-04-08T15:27:44.504Z,46
2023-04-08T15:30:14.854Z,48
2023-04-08T15:32:45.593Z,71
2023-04-08T15:35:16.205Z,84
2023-04-08T15:37:46.617Z,83
2023-04-08T15:40:16.794Z,48
2023-04-08T15:42:47.249Z,52
2023-04-08T15:45:17.676Z,55
2023-04-08T15:47:48.570Z,53
2023-04-08T15:50:19.144Z,44
2023-04-08T15:52:49.649Z,57
2023-04-08T15:55:19.940Z,65
2023-04-08T15:57:50.839Z,51
2023-04-08T16:00:20.992Z,45
2023-04-08T16:02:51.341Z,50
2023-04-08T16:05:21.662Z,86
2023-04-08T16:07:52.155Z,76
2023-04-08T16:10:22.675Z,49
2023-04-08T16:12:53.309Z,66
2023-04-08T16:15:23.569Z,46
2023-04-08T16:17:53.902Z,64
2023-04-08T16:20:24.527Z,46
2023-04-08T16:22:55.284Z,47
2023-04-08T16:25:27.064Z,48
2023-04-08T16:27:55.603Z,52
2023-04-08T16:30:26.315Z,43
2023-04-08T16:32:56.899Z,47
2023-04-08T16:35:27.467Z,44
2023-04-08T16:37:58.099Z,53
2023-04-08T16:40:28.846Z,41
2023-04-08T16:42:59.564Z,47
2023-04-08T16:45:30.098Z,44
2023-04-08T16:48:00.510Z,49
2023-04-08T16:50:30.240Z,50
2023-04-08T16:53:00.710Z,53
2023-04-08T16:55:31.548Z,48
2023-04-08T16:58:01.822Z,46
2023-04-08T17:00:32.476Z,44
2023-04-08T17:03:02.872Z,47
2023-04-08T17:05:33.617Z,49
2023-04-08T17:08:03.689Z,41
2023-04-08T17:10:33.865Z,50
2023-04-08T17:13:04.285Z,47
2023-04-08T17:15:35.026Z,42
2023-04-08T17:18:05.075Z,52
2023-04-08T17:20:35.272Z,45
2023-04-08T17:23:05.326Z,52
2023-04-08T17:25:35.927Z,52
2023-04-08T17:28:06.559Z,53
2023-04-08T17:30:36.661Z,47
2023-04-08T17:33:07.513Z,49
2023-04-08T17:35:37.864Z,47
2023-04-08T17:38:07.859Z,51
2023-04-08T17:40:38.194Z,49
2023-04-08T17:43:08.749Z,46
2023-04-08T17:45:39.340Z,52
2023-04-08T17:48:09.982Z,53
2023-04-08T17:50:40.510Z,58
2023-04-08T17:53:11.050Z,51
2023-04-08T17:55:41.884Z,52
2023-04-08T17:58:11.878Z,55
2023-04-08T18:00:42.090Z,52
2023-04-08T18:03:12.559Z,57
2023-04-08T18:05:42.924Z,54
2023-04-08T18:08:13.242Z,59
2023-04-08T18:10:43.609Z,52
2023-04-08T18:13:14.156Z,57
2023-04-08T18:15:44.142Z,61
2023-04-08T18:18:14.361Z,60
2023-04-08T18:20:44.996Z,62
2023-04-08T18:23:15.736Z,60
2023-04-08T18:25:45.849Z,56
2023-04-08T18:28:16.567Z,62
2023-04-08T18:30:46.833Z,63
2023-04-08T18:33:17.617Z,67
2023-04-08T18:35:47.800Z,67
2023-04-08T18:38:17.772Z,73
2023-04-08T18:40:48.145Z,76
2023-04-08T18:43:18.386Z,72
2023-04-08T18:45:48.896Z,84
2023-04-08T18:48:19.004Z,77
2023-04-08T18:50:49.423Z,79
2023-04-08T18:53:19.511Z,71
2023-04-08T18:55:49.966Z,75
2023-04-08T18:58:20.442Z,92
2023-04-08T19:00:51.436Z,89
2023-04-08T19:03:21.942Z,83
2023-04-08T19:05:52.081Z,79
2023-04-08T19:08:22.863Z,81
2023-04-08T19:10:53.033Z,71
2023-04-08T19:13:23.294Z,81
2023-04-08T19:15:53.433Z,77
2023-04-08T19:18:23.553Z,82
2023-04-08T19:20:53.835Z,86
2023-04-08T19:23:24.168Z,83
2023-04-08T19:25:54.965Z,83
2023-04-08T19:28:25.411Z,77
2023-04-08T19:30:55.486Z,76
2023-04-08T19:33:26.149Z,80
2023-04-08T19:35:56.798Z,76
2023-04-08T19:38:27.102Z,74
2023-04-08T19:40:57.248Z,67
2023-04-08T19:43:27.506Z,69
2023-04-08T19:45:58.317Z,65
2023-04-08T19:48:28.496Z,72
2023-04-08T19:50:58.839Z,72
2023-04-08T19:53:28.897Z,73
2023-04-08T19:55:58.971Z,74
2023-04-08T19:58:29.719Z,71
2023-04-08T20:01:00.127Z,74
2023-04-08T20:03:30.386Z,73
2023-04-08T20:06:00.680Z,70
2023-04-08T20:08:31.525Z,74
2023-04-08T20:11:03.464Z,74
2023-04-08T20:13:32.266Z,70
2023-04-08T20:16:02.392Z,71
2023-04-08T20:18:32.913Z,68
2023-04-08T20:21:03.315Z,63
2023-04-08T20:23:34.066Z,76
2023-04-08T20:26:04.805Z,73
2023-04-08T20:28:35.391Z,74
2023-04-08T20:31:05.956Z,73
2023-04-08T20:33:36.300Z,65
2023-04-08T20:36:06.417Z,72
2023-04-08T20:38:36.442Z,67
2023-04-08T20:41:06.579Z,78
2023-04-08T20:43:36.993Z,69
2023-04-08T20:46:07.776Z,71
2023-04-08T20:48:38.189Z,65
2023-04-08T20:51:09.000Z,62
2023-04-08T20:53:39.430Z,69
2023-04-08T20:56:10.145Z,60
2023-04-08T20:58:40.904Z,62
2023-04-08T21:01:11.179Z,59
2023-04-08T21:03:41.912Z,54
2023-04-08T21:06:12.541Z,55
2023-04-08T21:08:43.385Z,59
2023-04-08T21:11:14.031Z,58
2023-04-08T21:13:46.683Z,55
2023-04-08T21:16:15.392Z,57
2023-04-08T21:18:45.792Z,54
2023-04-08T21:21:16.477Z,66
2023-04-08T21:23:46.589Z,60
2023-04-08T21:26:17.468Z,59
2023-04-08T21:28:48.306Z,60
2023-04-08T21:31:19.196Z,60
2023-04-08T21:33:49.411Z,57
2023-04-08T21:36:20.284Z,57
2023-04-08T21:38:50.964Z,63
2023-04-08T21:41:21.142Z,64
2023-04-08T21:43:51.541Z,69
2023-04-08T21:46:21.749Z,63
2023-04-08T21:48:52.552Z,61
2023-04-08T21:51:22.552Z,59
2023-04-08T21:53:52.969Z,60
2023-04-08T21:56:23.227Z,59
2023-04-08T21:58:53.937Z,56
2023-04-08T22:01:23.878Z,55
2023-04-08T22:03:54.762Z,59
2023-04-08T22:06:32.285Z,62
2023-04-08T22:08:56.256Z,56
2023-04-08T22:11:26.993Z,62
2023-04-08T22:13:57.805Z,57
2023-04-08T22:16:28.449Z,56
2023-04-08T22:18:59.350Z,56
2023-04-08T22:21:29.471Z,61
2023-04-08T22:24:00.063Z,55
2023-04-08T22:26:30.900Z,57
2023-04-08T22:29:01.576Z,56
2023-04-08T22:31:32.093Z,55
2023-04-08T22:34:02.814Z,56
2023-04-08T22:36:33.603Z,60
2023-04-08T22:39:03.898Z,57
2023-04-08T22:41:33.797Z,59
2023-04-08T22:44:04.479Z,58
2023-04-08T22:46:34.632Z,55
2023-04-08T22:49:05.474Z,56
2023-04-08T22:51:36.231Z,55
2023-04-08T22:54:06.632Z,52
2023-04-08T22:56:37.036Z,44
2023-04-08T22:59:07.724Z,49
2023-04-08T23:01:38.045Z,57
2023-04-08T23:04:08.181Z,51
2023-04-08T23:06:38.794Z,53
2023-04-08T23:09:09.689Z,52
2023-04-08T23:11:40.489Z,55
2023-04-08T23:14:11.310Z,61
2023-04-08T23:16:41.243Z,61
2023-04-08T23:19:11.748Z,56
2023-04-08T23:21:41.724Z,63
2023-04-08T23:24:12.341Z,63
2023-04-08T23:26:42.445Z,58
2023-04-08T23:29:13.181Z,56
2023-04-08T23:31:43.644Z,55
2023-04-08T23:34:13.989Z,56
2023-04-08T23:36:44.244Z,55
2023-04-08T23:39:14.370Z,52
2023-04-08T23:41:45.057Z,49
2023-04-08T23:44:15.781Z,51
2023-04-08T23:46:45.946Z,49
2023-04-08T23:49:16.681Z,59
2023-04-08T23:51:46.890Z,55
2023-04-08T23:54:17.542Z,60
2023-04-08T23:56:47.596Z,51
2023-04-08T23:59:18.083Z,56
